KRNT - Renton, Washington, USA
Distance from station: W 21mi, 33km
Updated: Fri, 17-Sep-2021 6:53am PDT

 Wind from SE
Wind: SE 3 mph , 6 km/h
Temperature: 55°F , 13°C
Dew Point: 50°F , 10°C
Humidity: 82%
Barometer: 29.83 inHg , 1010.2 hPa
Visibility: 8 miles , 13 km
Cloud details: 6000 ft
2021/09/17 13:53 KRNT 171353Z AUTO 14003KT 8SM OVC060 13/10 A2983 RMK AO2 RAE04 SLP105 P0000 T01280100
KBFI - Seattle/Boeing, Washington, USA
Distance from station: W 25mi, 41km
Updated: Fri, 17-Sep-2021 6:53am PDT

 Wind from SE
Wind: SE 7 mph , 11 km/h
Temperature: 55°F , 13°C
Dew Point: 50°F , 10°C
Humidity: 82%
Barometer: 29.83 inHg , 1010.2 hPa
Visibility: 10 miles , 16 km
Cloud details: 5500 ft
2021/09/17 13:53 KBFI 171353Z 14006KT 10SM OVC055 13/10 A2983 RMK AO2 RAE08B29E38 SLP099 P0000 T01280100
 
KSEA - Seattle/Metro, Washington, USA
Distance from station: W 25mi, 41km
Updated: Fri, 17-Sep-2021 6:53am PDT
Light rain, Overcast
Light rain, Overcast
 Wind from S
Wind: S 5 mph , 7 km/h
Temperature: 54°F , 12°C
Dew Point: 50°F , 10°C
Humidity: 88%
Barometer: 29.83 inHg , 1010.2 hPa
Visibility: 10 miles , 16 km
Cloud details: 5000 ft
2021/09/17 13:53 KSEA 171353Z 18004KT 10SM -RA OVC050 12/10 A2983 RMK AO2 RAE08B52 SLP106 P0000 T01220100
KSMP - Stampede Pass, Washington, USA
Distance from station: SE 26mi, 41km
Updated: Fri, 17-Sep-2021 6:56am PDT

 Wind from varies
Wind: varies 3 mph , 6 km/h
Temperature: 46°F , 8°C
Dew Point: 30°F , -1°C
Humidity: 53%
Barometer: 29.88 inHg , 1011.9 hPa
Visibility: 10 miles , 16 km
Cloud details: 4100 ft
2021/09/17 13:56 KSMP 171356Z AUTO VRB03KT 10SM OVC041 08/M01 A2988 RMK AO2 SLP116 T00781011
 
KPLU - Puyallup/Thun, Washington, USA
Distance from station: SW 36mi, 59km
Updated: Fri, 17-Sep-2021 7:15am PDT
Light drizzle, Overcast
Light drizzle, Overcast
 Wind from calm
Wind: Calm
Temperature: 54°F , 12°C
Dew Point: 52°F , 11°C
Humidity: 94%
Barometer: 29.83 inHg , 1010.2 hPa
Visibility: 10 miles , 16 km
Cloud details: 5000 ft
2021/09/17 14:15 KPLU 171415Z AUTO 00000KT 10SM -DZ OVC050 12/11 A2983 RMK AO2
KPAE - Everett, Washington, USA
Distance from station: NW 37mi, 60km
Updated: Fri, 17-Sep-2021 6:53am PDT
Light rain, Overcast
Light rain, Overcast
 Wind from SSE
Wind: SSE 10 mph , 17 km/h
Temperature: 54°F , 12°C
Dew Point: 48°F , 9°C
Humidity: 82%
Barometer: 29.82 inHg , 1009.8 hPa
Visibility: 8 miles , 13 km
Cloud details: 5000 ft
2021/09/17 13:53 KPAE 171353Z 15009KT 8SM -RA OVC050 12/09 A2982 RMK AO2 SLP098 P0005 T01170094
 
KTIW - Tacoma, Washington, USA
Distance from station: WSW 41mi, 66km
Updated: Fri, 17-Sep-2021 6:53am PDT

 Wind from calm
Wind: Calm
Temperature: 52°F , 11°C
Dew Point: 50°F , 10°C
Humidity: 94%
Barometer: 29.84 inHg , 1010.5 hPa
Visibility: 10 miles , 16 km
Cloud details: 5000 ft
2021/09/17 13:53 KTIW 171353Z AUTO 00000KT 10SM OVC050 11/10 A2984 RMK AO2 RAE20 SLP103 P0000 T01060100
KTCM - Tacoma/Mc Chord, Washington, USA
Distance from station: SW 42mi, 67km
Updated: Fri, 17-Sep-2021 6:58am PDT

 Wind from S
Wind: S 3 mph , 6 km/h
Temperature: 52°F , 11°C
Dew Point: 50°F , 10°C
Humidity: 94%
Barometer: 29.83 inHg , 1010.2 hPa
Visibility: 10 miles , 16 km
Cloud details: 5000 ft
2021/09/17 13:58 KTCM 171358Z AUTO 17003KT 10SM OVC050 11/10 A2983 RMK AO2 SLP105 T01110095 $
 
KPWT - Bremerton Ntnl, Washington, USA
Distance from station: W 45mi, 73km
Updated: Fri, 17-Sep-2021 6:56am PDT
Light rain, Overcast
Light rain, Overcast
 Wind from WSW
Wind: WSW 9 mph , 15 km/h
Temperature: 54°F , 12°C
Dew Point: 48°F , 9°C
Humidity: 82%
Barometer: 29.83 inHg , 1010.2 hPa
Visibility: 10 miles , 16 km
Cloud details: 4800 ft
2021/09/17 13:56 KPWT 171356Z AUTO 24008KT 10SM -RA OVC048 12/09 A2983 RMK AO2 RAB26 SLP102 P0000 T01170089
KGRF - Fort Lewis/Gray, Washington, USA
Distance from station: SW 48mi, 77km
Updated: Fri, 17-Sep-2021 6:58am PDT

 Wind from calm
Wind: Calm
Temperature: 52°F , 11°C
Dew Point: 48°F , 9°C
Humidity: 88%
Barometer: 29.82 inHg , 1009.8 hPa
Visibility: 10 miles , 16 km
Cloud details: 5000 ft
2021/09/17 13:58 KGRF 171358Z AUTO 00000KT 10SM OVC050 11/09 A2982 RMK AO2 RAE16DZB16E26RAB44E55DZB55E57 SLP101 P0000 T01080087 $
 
KAWO - Arlington Muni, Washington, USA
Distance from station: NNW 50mi, 80km
Updated: Fri, 17-Sep-2021 6:56am PDT
Light rain, Overcast
Light rain, Overcast
 Wind from ESE
Wind: ESE 9 mph , 15 km/h
Temperature: 54°F , 12°C
Dew Point: 48°F , 9°C
Humidity: 82%
Barometer: 29.83 inHg , 1010.2 hPa
Visibility: 9 miles , 14 km
Cloud details: 6000 ft
2021/09/17 13:56 KAWO 171356Z AUTO 11008KT 9SM -RA OVC060 12/09 A2983 RMK AO2 SLP104 P0004 T01170089